ADDS METAR Data INFO
IDs: Format: Raw Decoded Include TAF

Data at: 1323 UTC 11 Dec 2017

KTTF 111317Z AUTO 00000KT 10SM OVC034 M04/M06 A3004 RMK AO2 T10431065
KTTF 111256Z AUTO 00000KT 10SM OVC032 M04/M06 A3005 RMK AO2 T10441065
KTTF 111236Z AUTO 00000KT 10SM OVC034 M04/M06 A3004 RMK AO2 T10451065
KTTF 111216Z AUTO 00000KT 10SM OVC034 M04/M06 A3004 RMK AO2 T10451065
KTTF 111156Z AUTO 26003KT 10SM OVC034 M05/M07 A3004 RMK AO2 T10481066 11025 21074
KTTF 111136Z AUTO 00000KT 10SM OVC034 M05/M07 A3002 RMK AO2 T10501068
KTTF 111116Z AUTO 00000KT 10SM OVC034 M05/M07 A3002 RMK AO2 T10501068
KTTF 111056Z AUTO 00000KT 10SM OVC034 M05/M07 A3003 RMK AO2 T10511070
KTTF 111036Z AUTO 00000KT 10SM OVC036 M05/M07 A3004 RMK AO2 T10501071
KTTF 111016Z AUTO 00000KT 10SM OVC036 M05/M07 A3005 RMK AO2 T10531072
KTTF 110956Z AUTO 23003KT 10SM OVC038 M06/M07 A3005 RMK AO2 T10561073
KTTF 110936Z AUTO 00000KT 10SM BKN038 M06/M08 A3004 RMK AO2 T10651085
KTTF 110916Z AUTO 00000KT 10SM SCT018 SCT040 M06/M09 A3004 RMK AO2 T10621088
KTTF 110856Z AUTO 00000KT 10SM OVC018 M06/M08 A3003 RMK AO2 T10621083
KTTF 110836Z AUTO 29005KT 10SM BKN018 M07/M08 A3003 RMK AO2 T10671085
KTTF 110815Z AUTO 28005KT 10SM CLR M07/M09 A3003 RMK AO2 T10661086
KTTF 110755Z AUTO 25004KT 10SM CLR M07/M09 A3002 RMK AO2 T10731095
KTTF 110735Z AUTO 28005KT 10SM CLR M06/M08 A3002 RMK AO2 T10571082
KTTF 110715Z AUTO 28005KT 10SM CLR M05/M08 A3002 RMK AO2 T10551080
KTTF 110655Z AUTO 28005KT 10SM CLR M04/M08 A3001 RMK AO2 T10441078
KTTF 110635Z AUTO 31005KT 10SM SCT021 M03/M07 A3001 RMK AO2 T10331075
KTTF 110615Z AUTO 32007KT 10SM BKN021 BKN033 OVC040 M02/M07 A3001 RMK AO2 T10251069
KTTF 110555Z AUTO 32008KT 10SM SCT021 OVC038 M02/M07 A3001 RMK AO2 T10221068 11013 21022
KTTF 110535Z AUTO 31009KT 10SM SCT019 BKN027 OVC036 M02/M06 A3000 RMK AO2 T10201060
KTTF 110515Z AUTO 31008KT 10SM OVC022 M02/M05 A2999 RMK AO2 T10181055
KTTF 110455Z AUTO 30008KT 10SM OVC022 M02/M05 A2999 RMK AO2 T10181051
KTTF 110435Z AUTO 30009KT 10SM SCT015 OVC027 M02/M05 A2998 RMK AO2 T10181049
KTTF 110419Z AUTO 30007KT 10SM SCT017 OVC027 M02/M05 A2997 RMK AO2 T10171050
KTTF 110359Z AUTO 30009KT 10SM SCT019 BKN027 OVC035 M02/M05 A2996 RMK AO2 T10161051 410131051
KTTF 110339Z AUTO 31010KT 10SM BKN020 OVC035 M01/M05 A2997 RMK AO2 T10151053
KTTF 110319Z AUTO 28009KT 10SM OVC020 M01/M06 A2996 RMK AO2 T10131056
KTTF 110259Z AUTO 28006KT 10SM OVC020 M01/M06 A2996 RMK AO2 T10131057
KTTF 110239Z AUTO 26006KT 10SM SCT022 BKN028 OVC036 M01/M06 A2996 RMK AO2 T10151058
KTTF 110219Z AUTO 25006KT 10SM OVC038 M01/M06 A2995 RMK AO2 T10151059
KTTF 110159Z AUTO 25007KT 10SM OVC038 M01/M06 A2995 RMK AO2 T10151059
KTTF 110139Z AUTO 24006KT 10SM OVC036 M01/M06 A2995 RMK AO2 T10151060
KTTF 110119Z AUTO 23007KT 10SM OVC032 M02/M06 A2995 RMK AO2 T10161059
KTTF 110059Z AUTO 24007KT 10SM OVC032 M02/M06 A2995 RMK AO2 T10161060
KTTF 110039Z AUTO 24008KT 10SM OVC032 M02/M06 A2994 RMK AO2 T10161061
KTTF 110019Z AUTO 23008KT 10SM BKN030 OVC034 M02/M06 A2994 RMK AO2 T10171065
KTTF 102358Z AUTO 22006KT 10SM OVC026 M02/M07 A2994 RMK AO2 T10171067 11017 21033
KTTF 102338Z AUTO 22006KT 10SM OVC026 M02/M07 A2994 RMK AO2 T10201068
KTTF 102318Z AUTO 22005KT 10SM OVC026 M02/M07 A2993 RMK AO2 T10211070
KTTF 102258Z AUTO 22005KT 10SM OVC028 M02/M07 A2994 RMK AO2 T10221067
KTTF 102238Z AUTO 23006KT 10SM OVC028 M02/M07 A2993 RMK AO2 T10231070
KTTF 102218Z AUTO 23006KT 10SM OVC032 M02/M07 A2993 RMK AO2 T10251072
KTTF 102158Z AUTO 23007KT 10SM OVC032 M02/M07 A2992 RMK AO2 T10251072
KTTF 102138Z AUTO 24008KT 10SM OVC034 M02/M07 A2992 RMK AO2 T10251075
KTTF 102118Z AUTO 25009KT 10SM BKN037 OVC046 M02/M08 A2992 RMK AO2 T10251076
KTTF 102058Z AUTO 25009KT 10SM BKN043 OVC050 M02/M08 A2990 RMK AO2 T10251079
KTTF 102038Z AUTO 23011KT 10SM SCT043 OVC050 M02/M08 A2989 RMK AO2 T10251079
KTTF 102017Z AUTO 23011G15KT 10SM OVC050 M03/M08 A2989 RMK AO2 T10271080
KTTF 101957Z AUTO 23009KT 10SM OVC050 M03/M08 A2989 RMK AO2 T10281080
KTTF 101937Z AUTO 22010G14KT 10SM OVC050 M03/M08 A2989 RMK AO2 T10301080
KTTF 101917Z AUTO 23011KT 10SM OVC060 M03/M08 A2989 RMK AO2 T10321082
KTTF 101857Z AUTO 24012KT 10SM SCT024 OVC060 M03/M09 A2990 RMK AO2 T10331086
KTTF 101837Z AUTO 24013KT 10SM SCT024 BKN060 OVC070 M03/M09 A2990 RMK AO2 T10331086
KTTF 101817Z AUTO 24011G17KT 10SM SCT024 OVC070 M03/M08 A2991 RMK AO2 T10271083
KTTF 101757Z AUTO 23014KT 10SM OVC070 M03/M09 A2991 RMK AO2 T10321087 11028 21046
KTTF 101737Z AUTO 23012G19KT 10SM SCT050 OVC080 M04/M09 A2992 RMK AO2 T10371091
KTTF 101716Z AUTO 24015KT 10SM SCT050 OVC080 M04/M09 A2993 RMK AO2 T10401092
KTTF 101656Z AUTO 23011G16KT 10SM OVC050 M04/M09 A2994 RMK AO2 T10431094
KTTF 101636Z AUTO 23013G18KT 10SM BKN055 OVC065 M04/M09 A2995 RMK AO2 T10451094
KTTF 101615Z AUTO 23013G19KT 10SM OVC065 M04/M09 A2996 RMK AO2 T10451094
KTTF 101555Z AUTO 23013G21KT 10SM SCT055 OVC065 M05/M10 A2996 RMK AO2 T10461096
KTTF 101535Z AUTO 24011KT 10SM SCT055 OVC065 M04/M09 A2997 RMK AO2 T10431092
KTTF 101515Z AUTO 24016G20KT 10SM SCT049 OVC060 M04/M09 A2996 RMK AO2 T10451095
KTTF 101455Z AUTO 24016G21KT 10SM SCT048 OVC060 M04/M09 A2996 RMK AO2 T10451091
KTTF 101435Z AUTO 24014KT 10SM SCT018 OVC070 M04/M08 A2997 RMK AO2 T10421084
KTTF 101415Z AUTO 24014G17KT 10SM BKN070 OVC080 M04/M08 A2996 RMK AO2 T10401083
KTTF 101355Z AUTO 25013G19KT 10SM OVC080 M04/M08 A2996 RMK AO2 T10371079
KTTF 101335Z AUTO 24011KT 10SM SCT014 SCT075 OVC090 M03/M07 A2996 RMK AO2 T10341072
KTTF 101315Z AUTO 25012KT 10SM BKN014 BKN075 OVC095 M03/M06 A2995 RMK AO2 T10301062
KTTF 101255Z AUTO 23009KT 10SM OVC014 M03/M05 A2995 RMK AO2 T10281054
KTTF 101235Z AUTO 23009KT 10SM SCT016 OVC023 M03/M05 A2995 RMK AO2 T10281055
KTTF 101215Z AUTO 23010KT 10SM SCT025 BKN030 OVC034 M03/M05 A2995 RMK AO2 T10301055
KTTF 101159Z AUTO 24008KT 10SM OVC036 M03/M06 A2995 RMK AO2 T10321057 11031 21051
KTTF 101139Z AUTO 25007KT 10SM OVC038 M03/M06 A2995 RMK AO2 T10321056
KTTF 101119Z AUTO 24007KT 10SM SCT017 OVC038 M03/M06 A2995 RMK AO2 T10331057
KTTF 101059Z AUTO 23007KT 10SM SCT022 SCT027 OVC038 M03/M06 A2994 RMK AO2 T10351060
KTTF 101039Z AUTO 23006KT 10SM SCT022 BKN028 OVC046 M04/M06 A2994 RMK AO2 T10381062
KTTF 101019Z AUTO 24006KT 10SM OVC048 M04/M07 A2994 RMK AO2 T10411066
KTTF 100959Z AUTO 24006KT 10SM OVC050 M04/M07 A2994 RMK AO2 T10421070
KTTF 100939Z AUTO 23005KT 10SM OVC050 M04/M07 A2994 RMK AO2 T10401070
KTTF 100919Z AUTO 23004KT 10SM OVC050 M04/M07 A2994 RMK AO2 T10401070
KTTF 100859Z AUTO 00000KT 10SM OVC060 M04/M07 A2995 RMK AO2 T10451073
KTTF 100839Z AUTO 00000KT 10SM OVC060 M04/M07 A2995 RMK AO2 T10431074
KTTF 100818Z AUTO 27004KT 10SM OVC060 M04/M07 A2996 RMK AO2 T10421075
KTTF 100758Z AUTO 27003KT 10SM OVC060 M04/M07 A2996 RMK AO2 T10451075
KTTF 100738Z AUTO 28004KT 10SM OVC060 M05/M08 A2995 RMK AO2 T10481079
KTTF 100718Z AUTO 28006KT 10SM BKN060 M05/M08 A2994 RMK AO2 T10491080
KTTF 100658Z AUTO 29007KT 10SM CLR M05/M08 A2994 RMK AO2 T10501082
KTTF 100638Z AUTO 29007KT 10SM CLR M05/M08 A2994 RMK AO2 T10471082
KTTF 100618Z AUTO 29006KT 10SM CLR M04/M08 A2994 RMK AO2 T10451083
KTTF 100558Z AUTO 29007KT 10SM BKN036 M03/M08 A2993 RMK AO2 T10351078 11021 21037
KTTF 100538Z AUTO 29008KT 10SM OVC036 M03/M07 A2993 RMK AO2 T10271067
KTTF 100518Z AUTO 29008KT 10SM OVC038 M02/M06 A2993 RMK AO2 T10251065
KTTF 100458Z AUTO 28006KT 10SM OVC038 M02/M05 A2992 RMK AO2 T10251055
KTTF 100437Z AUTO 29007KT 10SM OVC038 M02/M05 A2991 RMK AO2 T10221054
KTTF 100417Z AUTO 29008KT 10SM OVC038 M02/M05 A2991 RMK AO2 T10211055
KTTF 100357Z AUTO 30006KT 10SM OVC036 M02/M05 A2990 RMK AO2 T10211054 410191045
KTTF 100337Z AUTO 31009KT 10SM OVC034 M02/M05 A2990 RMK AO2 T10221053
KTTF 100317Z AUTO 30008KT 10SM SCT016 BKN034 OVC044 M02/M05 A2989 RMK AO2 T10251053
KTTF 100257Z AUTO 29005KT 10SM BKN016 OVC044 M03/M06 A2989 RMK AO2 T10261056
KTTF 100237Z AUTO 30007KT 10SM BKN018 OVC044 M02/M06 A2988 RMK AO2 T10251057
KTTF 100217Z AUTO 30007KT 10SM OVC020 M02/M06 A2988 RMK AO2 T10251058
KTTF 100157Z AUTO 30006KT 10SM OVC027 M03/M06 A2987 RMK AO2 T10281058
KTTF 100137Z AUTO 29005KT 10SM OVC030 M03/M05 A2986 RMK AO2 T10321053